Shiloh, New Jersey
Current Conditions -  °F | °C
As of 4:54 AM on Friday 19 Dec 2014 (Local Time) from KMIV Reporting Station
Overcast Overcast  
Wind Chill: 28°   Ceiling: 3300
Heat Index: 35°   Visibility: 10mi
Dew Point: 26°   Wind: 9mph
Humidity: 70%   Direction: 280°W
Pressure: 30.05"   Gusts: NA
Location:  39.46°N, 75.3°W
Report Text: KMIV 190954Z AUTO 28008KT 10SM OVC033 02/M03 A3005 RMK AO2 SLP174 T00171033
Loading
Personal Weather Stations






























Interactive Weather Map New forecast layout! Learn more

10-Day Weather Forecast

Advertisements
Track Severe Weather on mobile